You are here

Stations

Station Name Date Time Temperature Relative Humidity Precipitation Wind Speed Wind Direction Create Custom Report Daily Report Hourly Report
Aberdeen VTcr 2019-07-12 17:45 53.4 87.70 0.00 2.59 NNW
Bee Lake 2019-07-12 17:45 46.8 93.80 0.00 2.18 NNW
Brooksville 2019-07-12 17:45 54.6 84.70 0.00 5.13 N
Brooksville2 VTso 2019-07-12 17:45 53.9 87.10 0.00
Brown Loam Exp Stn VT 2019-07-12 17:45 49.5 95.30 0.00 4.05 NW
Brown Loam Exp. Stn. 2019-07-12 17:45 50.0 93.60 0.00 4.66 NNW
Catladge Farm 2019-07-12 17:44
Clarksdale VTso 2019-07-12 17:45 44.1 100.00 0.00
Cleveland 2019-07-12 17:45 45.0 100.00 0.00 5.02 NNE
Coastal Res & Ext Cnt 2019-07-12 17:45 57.3 86.30 0.00 1.28 NNW
COOP Stoneville 2019-03-12 7:00 33.0 90 0.00
Home Cypress Farm 2019-07-12 17:45 44.5 98.30 0.00 4.06 N
Longwood VTso 2019-07-12 17:45 44.8 98.40 0.00
Lyon 2019-07-12 17:45 43.8 99.20 0.00 4.20 N
Macon VTcr 2019-07-12 17:45 56.2 84.50 0.00 3.98 NNW
Money VT 2019-07-12 17:45 46.7 96.20 0.00 4.95 N
Mound Bayou 2019-07-12 17:45 43.9 100.00 0.00 4.50 NE
MSU North Farm Starkv 2019-07-12 17:45 52.3 88.20 0.00 2.46 NNW
Natchez 2019-07-12 17:45 52.9 87.20 0.00 2.75 NE
Olive Branch VTcr 2019-07-12 17:44
Olive Branch2 VTso 2019-07-12 17:44
Onward VT 2019-07-12 17:45 45.7 99.00 0.00
Pontotoc AWS COOP 2019-07-12 17:44
Pontotoc Exp Stn 2019-07-12 17:45 48.0 95.80 0.00 0.08 NE
Prairie 2019-07-12 17:45 51.9 99.60 0.00 2.24 NNW
Sidon 2019-07-12 17:45 46.7 94.70 0.00 3.77 NNE
Stoneville AWS 2019-07-12 17:45 44.1 99.20 0.00 3.45 NNE
Stoneville F10 2019-07-12 17:45 44.7 0.31 0.00 5.62 NE
Stoneville W 2019-07-12 17:45 44.3 100.00 0.00 4.87 ENE
Stoneville_SW 2019-07-12 17:45 44.7 99.70 0.00 3.41 NNE
Thighman 2019-07-12 17:45 0.00 2.07 N
Tippo VT 2019-07-12 17:45 46.2 95.70 0.00
Tribbett 2019-07-12 17:45 45.9 97.50 0.00 3.95 N
Verona 2019-07-12 17:45 51.2 88.10 0.00 1.72 N
Verona VTso 2019-07-12 17:45 49.7 84.50 0.02
Back to Top